sensor_id;sensor_type;location;lat;lon;timestamp;temperature;humidity
2100;DHT22;1055;48.854;9.302;2023-03-20T12:25:58;12.50;99.90
2100;DHT22;1055;48.854;9.302;2023-03-20T12:28:30;12.60;99.90
2100;DHT22;1055;48.854;9.302;2023-03-20T12:36:34;13.10;99.90
2100;DHT22;1055;48.854;9.302;2023-03-20T12:39:06;13.20;99.90
2100;DHT22;1055;48.854;9.302;2023-03-20T12:44:43;13.80;99.90
2100;DHT22;1055;48.854;9.302;2023-03-20T12:50:40;14.70;99.90
2100;DHT22;1055;48.854;9.302;2023-03-20T13:01:21;14.40;99.90
2100;DHT22;1055;48.854;9.302;2023-03-20T13:04:22;14.30;99.90
2100;DHT22;1055;48.854;9.302;2023-03-20T13:07:00;13.70;99.90
2100;DHT22;1055;48.854;9.302;2023-03-20T13:10:30;14.00;99.90
2100;DHT22;1055;48.854;9.302;2023-03-20T13:20:19;14.10;99.90
2100;DHT22;1055;48.854;9.302;2023-03-20T13:23:08;13.90;99.90
2100;DHT22;1055;48.854;9.302;2023-03-20T13:26:06;14.00;99.90
2100;DHT22;1055;48.854;9.302;2023-03-20T13:28:34;13.70;99.90
2100;DHT22;1055;48.854;9.302;2023-03-20T13:33:37;14.20;99.90
2100;DHT22;1055;48.854;9.302;2023-03-20T13:36:33;14.70;99.90
2100;DHT22;1055;48.854;9.302;2023-03-20T13:41:35;14.70;99.90
2100;DHT22;1055;48.854;9.302;2023-03-20T13:44:03;15.10;99.90
2100;DHT22;1055;48.854;9.302;2023-03-20T13:46:35;15.50;99.90
2100;DHT22;1055;48.854;9.302;2023-03-20T13:49:12;15.30;99.90
2100;DHT22;1055;48.854;9.302;2023-03-20T13:51:52;15.50;99.90
2100;DHT22;1055;48.854;9.302;2023-03-20T14:03:02;15.50;99.90
2100;DHT22;1055;48.854;9.302;2023-03-20T14:05:38;15.40;99.90
2100;DHT22;1055;48.854;9.302;2023-03-20T14:08:28;15.30;99.90
2100;DHT22;1055;48.854;9.302;2023-03-20T14:11:04;15.40;99.90
2100;DHT22;1055;48.854;9.302;2023-03-20T14:13:32;14.90;99.90
2100;DHT22;1055;48.854;9.302;2023-03-20T14:16:01;14.80;99.90
2100;DHT22;1055;48.854;9.302;2023-03-20T14:18:29;14.80;99.90
2100;DHT22;1055;48.854;9.302;2023-03-20T14:20:58;14.70;99.90
2100;DHT22;1055;48.854;9.302;2023-03-20T14:23:39;14.50;99.90
2100;DHT22;1055;48.854;9.302;2023-03-20T14:26:10;14.50;99.90
2100;DHT22;1055;48.854;9.302;2023-03-20T14:29:00;14.20;99.90
2100;DHT22;1055;48.854;9.302;2023-03-20T14:31:30;14.50;99.90
2100;DHT22;1055;48.854;9.302;2023-03-20T14:36:30;14.60;99.90
2100;DHT22;1055;48.854;9.302;2023-03-20T14:39:13;14.80;99.90
2100;DHT22;1055;48.854;9.302;2023-03-20T14:42:06;14.70;99.90
2100;DHT22;1055;48.854;9.302;2023-03-20T14:48:02;14.80;99.90
2100;DHT22;1055;48.854;9.302;2023-03-20T14:50:38;14.90;99.90
2100;DHT22;1055;48.854;9.302;2023-03-20T14:53:23;14.80;99.90
2100;DHT22;1055;48.854;9.302;2023-03-20T14:59:00;14.50;99.90
2100;DHT22;1055;48.854;9.302;2023-03-20T15:01:40;14.50;99.90
2100;DHT22;1055;48.854;9.302;2023-03-20T15:07:16;14.40;99.90
2100;DHT22;1055;48.854;9.302;2023-03-20T15:09:50;14.60;99.90
2100;DHT22;1055;48.854;9.302;2023-03-20T15:12:20;14.30;99.90
2100;DHT22;1055;48.854;9.302;2023-03-20T15:15:03;14.60;99.90
2100;DHT22;1055;48.854;9.302;2023-03-20T15:17:44;14.70;99.90
2100;DHT22;1055;48.854;9.302;2023-03-20T15:20:23;14.60;99.90
2100;DHT22;1055;48.854;9.302;2023-03-20T15:22:54;14.40;99.90
2100;DHT22;1055;48.854;9.302;2023-03-20T15:25:23;14.00;99.90
2100;DHT22;1055;48.854;9.302;2023-03-20T15:27:49;13.90;99.90
2100;DHT22;1055;48.854;9.302;2023-03-20T15:30:18;14.10;99.90
2100;DHT22;1055;48.854;9.302;2023-03-20T15:32:45;14.20;99.90
2100;DHT22;1055;48.854;9.302;2023-03-20T15:35:17;13.90;99.90
2100;DHT22;1055;48.854;9.302;2023-03-20T15:37:45;13.80;99.90
2100;DHT22;1055;48.854;9.302;2023-03-20T15:40:27;13.90;99.90
2100;DHT22;1055;48.854;9.302;2023-03-20T15:42:58;13.70;99.90
2100;DHT22;1055;48.854;9.302;2023-03-20T15:45:31;14.00;99.90
2100;DHT22;1055;48.854;9.302;2023-03-20T15:48:08;14.10;99.90
2100;DHT22;1055;48.854;9.302;2023-03-20T15:50:38;14.30;99.90
2100;DHT22;1055;48.854;9.302;2023-03-20T15:53:06;14.40;99.90
2100;DHT22;1055;48.854;9.302;2023-03-20T15:55:36;13.80;99.90
2100;DHT22;1055;48.854;9.302;2023-03-20T15:58:02;14.10;99.90
2100;DHT22;1055;48.854;9.302;2023-03-20T16:00:31;14.30;99.90
2100;DHT22;1055;48.854;9.302;2023-03-20T16:02:59;14.60;99.90
2100;DHT22;1055;48.854;9.302;2023-03-20T16:05:27;14.40;99.90
2100;DHT22;1055;48.854;9.302;2023-03-20T16:07:54;14.00;99.90
2100;DHT22;1055;48.854;9.302;2023-03-20T16:10:24;13.90;99.90
2100;DHT22;1055;48.854;9.302;2023-03-20T16:12:52;14.00;99.90
2100;DHT22;1055;48.854;9.302;2023-03-20T16:15:23;14.20;99.90
2100;DHT22;1055;48.854;9.302;2023-03-20T16:17:54;14.00;99.90
2100;DHT22;1055;48.854;9.302;2023-03-20T16:20:21;13.80;99.90
2100;DHT22;1055;48.854;9.302;2023-03-20T16:22:49;13.90;99.90
2100;DHT22;1055;48.854;9.302;2023-03-20T16:25:17;14.00;99.90
2100;DHT22;1055;48.854;9.302;2023-03-20T16:27:46;13.90;99.90
2100;DHT22;1055;48.854;9.302;2023-03-20T16:30:17;13.80;99.90
2100;DHT22;1055;48.854;9.302;2023-03-20T16:32:46;13.80;99.90
2100;DHT22;1055;48.854;9.302;2023-03-20T16:35:24;13.70;99.90
2100;DHT22;1055;48.854;9.302;2023-03-20T16:37:56;13.80;99.90
2100;DHT22;1055;48.854;9.302;2023-03-20T16:40:34;14.10;99.90
2100;DHT22;1055;48.854;9.302;2023-03-20T16:43:15;14.10;99.90
2100;DHT22;1055;48.854;9.302;2023-03-20T16:45:44;14.20;99.90
2100;DHT22;1055;48.854;9.302;2023-03-20T16:50:40;14.10;99.90
2100;DHT22;1055;48.854;9.302;2023-03-20T16:53:16;13.70;99.90
2100;DHT22;1055;48.854;9.302;2023-03-20T16:55:46;13.70;99.90
2100;DHT22;1055;48.854;9.302;2023-03-20T16:58:32;13.60;99.90
2100;DHT22;1055;48.854;9.302;2023-03-20T17:01:04;13.40;99.90
2100;DHT22;1055;48.854;9.302;2023-03-20T17:03:36;13.40;99.90
2100;DHT22;1055;48.854;9.302;2023-03-20T17:06:07;13.50;99.90
2100;DHT22;1055;48.854;9.302;2023-03-20T17:08:46;13.40;99.90
2100;DHT22;1055;48.854;9.302;2023-03-20T17:11:15;13.60;99.90
2100;DHT22;1055;48.854;9.302;2023-03-20T17:13:46;13.60;99.90
2100;DHT22;1055;48.854;9.302;2023-03-20T17:16:16;13.50;99.90
2100;DHT22;1055;48.854;9.302;2023-03-20T17:18:44;13.60;99.90
2100;DHT22;1055;48.854;9.302;2023-03-20T17:21:10;13.60;99.90
2100;DHT22;1055;48.854;9.302;2023-03-20T17:23:37;13.30;99.90
2100;DHT22;1055;48.854;9.302;2023-03-20T17:26:03;13.00;99.90
2100;DHT22;1055;48.854;9.302;2023-03-20T17:28:33;12.90;99.90
2100;DHT22;1055;48.854;9.302;2023-03-20T17:30:59;12.80;99.90
2100;DHT22;1055;48.854;9.302;2023-03-20T17:33:30;12.80;99.90
2100;DHT22;1055;48.854;9.302;2023-03-20T17:35:57;12.90;99.90
2100;DHT22;1055;48.854;9.302;2023-03-20T17:38:24;12.80;99.90
2100;DHT22;1055;48.854;9.302;2023-03-20T17:40:50;12.80;99.90
2100;DHT22;1055;48.854;9.302;2023-03-20T17:43:17;12.70;99.90
2100;DHT22;1055;48.854;9.302;2023-03-20T17:45:44;12.80;99.90
2100;DHT22;1055;48.854;9.302;2023-03-20T17:48:18;12.80;99.90
2100;DHT22;1055;48.854;9.302;2023-03-20T17:50:46;12.50;99.90
2100;DHT22;1055;48.854;9.302;2023-03-20T17:53:21;12.50;99.90
2100;DHT22;1055;48.854;9.302;2023-03-20T17:55:53;12.70;99.90
2100;DHT22;1055;48.854;9.302;2023-03-20T17:58:22;12.60;99.90
2100;DHT22;1055;48.854;9.302;2023-03-20T18:00:49;13.10;99.90
2100;DHT22;1055;48.854;9.302;2023-03-20T18:03:16;12.70;99.90
2100;DHT22;1055;48.854;9.302;2023-03-20T18:05:47;12.70;99.90
2100;DHT22;1055;48.854;9.302;2023-03-20T18:08:15;12.80;99.90
2100;DHT22;1055;48.854;9.302;2023-03-20T18:10:44;12.60;99.90
2100;DHT22;1055;48.854;9.302;2023-03-20T18:13:10;12.70;99.90
2100;DHT22;1055;48.854;9.302;2023-03-20T18:15:36;12.70;99.90
2100;DHT22;1055;48.854;9.302;2023-03-20T18:18:05;12.80;99.90
2100;DHT22;1055;48.854;9.302;2023-03-20T18:20:34;12.70;99.90
2100;DHT22;1055;48.854;9.302;2023-03-20T18:23:00;12.50;99.90
2100;DHT22;1055;48.854;9.302;2023-03-20T18:25:26;12.50;99.90
2100;DHT22;1055;48.854;9.302;2023-03-20T18:27:57;12.40;99.90
2100;DHT22;1055;48.854;9.302;2023-03-20T18:30:25;12.60;99.90
2100;DHT22;1055;48.854;9.302;2023-03-20T18:32:51;12.60;99.90
2100;DHT22;1055;48.854;9.302;2023-03-20T18:35:17;12.50;99.90
2100;DHT22;1055;48.854;9.302;2023-03-20T18:37:43;12.40;99.90
2100;DHT22;1055;48.854;9.302;2023-03-20T18:40:22;12.50;99.90
2100;DHT22;1055;48.854;9.302;2023-03-20T18:42:51;12.30;99.90
2100;DHT22;1055;48.854;9.302;2023-03-20T18:45:17;12.30;99.90
2100;DHT22;1055;48.854;9.302;2023-03-20T18:47:43;12.30;99.90
2100;DHT22;1055;48.854;9.302;2023-03-20T18:50:31;12.30;99.90
2100;DHT22;1055;48.854;9.302;2023-03-20T18:52:57;12.30;99.90
2100;DHT22;1055;48.854;9.302;2023-03-20T18:55:25;12.30;99.90
2100;DHT22;1055;48.854;9.302;2023-03-20T18:57:52;12.40;99.90
2100;DHT22;1055;48.854;9.302;2023-03-20T19:00:20;12.40;99.90
2100;DHT22;1055;48.854;9.302;2023-03-20T19:02:48;12.30;99.90
2100;DHT22;1055;48.854;9.302;2023-03-20T19:05:15;12.10;99.90
2100;DHT22;1055;48.854;9.302;2023-03-20T19:07:41;12.10;99.90
2100;DHT22;1055;48.854;9.302;2023-03-20T19:10:28;12.10;99.90
2100;DHT22;1055;48.854;9.302;2023-03-20T19:12:55;12.10;99.90
2100;DHT22;1055;48.854;9.302;2023-03-20T19:15:24;11.90;99.90
2100;DHT22;1055;48.854;9.302;2023-03-20T19:17:50;12.00;99.90
2100;DHT22;1055;48.854;9.302;2023-03-20T19:20:26;12.00;99.90
2100;DHT22;1055;48.854;9.302;2023-03-20T19:22:53;11.90;99.90
2100;DHT22;1055;48.854;9.302;2023-03-20T19:25:19;11.90;99.90
2100;DHT22;1055;48.854;9.302;2023-03-20T19:27:44;11.90;99.90
2100;DHT22;1055;48.854;9.302;2023-03-20T19:30:24;11.90;99.90
2100;DHT22;1055;48.854;9.302;2023-03-20T19:32:51;11.90;99.90
2100;DHT22;1055;48.854;9.302;2023-03-20T19:35:16;11.90;99.90
2100;DHT22;1055;48.854;9.302;2023-03-20T19:37:42;11.80;99.90
2100;DHT22;1055;48.854;9.302;2023-03-20T19:40:30;11.90;99.90
2100;DHT22;1055;48.854;9.302;2023-03-20T19:42:57;11.90;99.90
2100;DHT22;1055;48.854;9.302;2023-03-20T19:45:24;11.90;99.90
2100;DHT22;1055;48.854;9.302;2023-03-20T19:47:50;11.80;99.90
2100;DHT22;1055;48.854;9.302;2023-03-20T19:52:45;11.80;99.90
2100;DHT22;1055;48.854;9.302;2023-03-20T19:55:12;11.70;99.90
2100;DHT22;1055;48.854;9.302;2023-03-20T19:57:37;11.60;99.90
2100;DHT22;1055;48.854;9.302;2023-03-20T20:00:03;11.60;99.90
2100;DHT22;1055;48.854;9.302;2023-03-20T20:02:29;11.50;99.90
2100;DHT22;1055;48.854;9.302;2023-03-20T20:04:55;11.50;99.90
2100;DHT22;1055;48.854;9.302;2023-03-20T20:07:21;11.50;99.90
2100;DHT22;1055;48.854;9.302;2023-03-20T20:09:46;11.50;99.90
2100;DHT22;1055;48.854;9.302;2023-03-20T20:12:12;11.60;99.90
2100;DHT22;1055;48.854;9.302;2023-03-20T20:14:37;11.60;99.90
2100;DHT22;1055;48.854;9.302;2023-03-20T20:17:03;11.70;99.90
2100;DHT22;1055;48.854;9.302;2023-03-20T20:19:28;11.70;99.90
2100;DHT22;1055;48.854;9.302;2023-03-20T20:21:54;11.70;99.90
2100;DHT22;1055;48.854;9.302;2023-03-20T20:24:20;11.70;99.90
2100;DHT22;1055;48.854;9.302;2023-03-20T20:26:48;11.60;99.90
2100;DHT22;1055;48.854;9.302;2023-03-20T20:29:13;11.60;99.90
2100;DHT22;1055;48.854;9.302;2023-03-20T20:31:39;11.70;99.90
2100;DHT22;1055;48.854;9.302;2023-03-20T20:34:05;11.80;99.90
2100;DHT22;1055;48.854;9.302;2023-03-20T20:36:30;11.90;99.90
2100;DHT22;1055;48.854;9.302;2023-03-20T20:38:56;11.80;99.90
2100;DHT22;1055;48.854;9.302;2023-03-20T20:41:21;11.80;99.90
2100;DHT22;1055;48.854;9.302;2023-03-20T20:43:47;11.80;99.90
2100;DHT22;1055;48.854;9.302;2023-03-20T20:46:13;11.90;99.90
2100;DHT22;1055;48.854;9.302;2023-03-20T20:48:40;11.80;99.90
2100;DHT22;1055;48.854;9.302;2023-03-20T20:51:06;11.90;99.90
2100;DHT22;1055;48.854;9.302;2023-03-20T20:53:31;11.80;99.90
2100;DHT22;1055;48.854;9.302;2023-03-20T20:55:57;11.80;99.90
2100;DHT22;1055;48.854;9.302;2023-03-20T20:58:22;11.90;99.90
2100;DHT22;1055;48.854;9.302;2023-03-20T21:00:48;11.80;99.90
2100;DHT22;1055;48.854;9.302;2023-03-20T21:03:15;11.90;99.90
2100;DHT22;1055;48.854;9.302;2023-03-20T21:05:41;12.00;99.90
2100;DHT22;1055;48.854;9.302;2023-03-20T21:08:07;11.80;99.90
2100;DHT22;1055;48.854;9.302;2023-03-20T21:10:33;11.90;99.90
2100;DHT22;1055;48.854;9.302;2023-03-20T21:12:58;12.00;99.90
2100;DHT22;1055;48.854;9.302;2023-03-20T21:15:25;12.10;99.90
2100;DHT22;1055;48.854;9.302;2023-03-20T21:17:50;12.00;99.90
2100;DHT22;1055;48.854;9.302;2023-03-20T21:20:16;12.10;99.90
2100;DHT22;1055;48.854;9.302;2023-03-20T21:22:42;12.10;99.90
2100;DHT22;1055;48.854;9.302;2023-03-20T21:25:08;12.00;99.90
2100;DHT22;1055;48.854;9.302;2023-03-20T21:27:34;12.10;99.90
2100;DHT22;1055;48.854;9.302;2023-03-20T21:30:01;12.20;99.90
2100;DHT22;1055;48.854;9.302;2023-03-20T21:32:28;12.10;99.90
2100;DHT22;1055;48.854;9.302;2023-03-20T21:34:57;12.30;99.90
2100;DHT22;1055;48.854;9.302;2023-03-20T21:37:24;12.30;99.90
2100;DHT22;1055;48.854;9.302;2023-03-20T21:39:50;12.40;99.90
2100;DHT22;1055;48.854;9.302;2023-03-20T21:42:16;12.50;99.90
2100;DHT22;1055;48.854;9.302;2023-03-20T21:44:42;12.60;99.90
2100;DHT22;1055;48.854;9.302;2023-03-20T21:47:08;12.40;99.90
2100;DHT22;1055;48.854;9.302;2023-03-20T21:49:33;12.40;99.90
2100;DHT22;1055;48.854;9.302;2023-03-20T21:51:59;12.50;99.90
2100;DHT22;1055;48.854;9.302;2023-03-20T21:54:26;12.50;99.90
2100;DHT22;1055;48.854;9.302;2023-03-20T21:56:52;12.40;99.90
2100;DHT22;1055;48.854;9.302;2023-03-20T21:59:19;12.10;99.90
2100;DHT22;1055;48.854;9.302;2023-03-20T22:01:44;12.30;99.90
2100;DHT22;1055;48.854;9.302;2023-03-20T22:04:10;12.40;99.90
2100;DHT22;1055;48.854;9.302;2023-03-20T22:06:36;12.40;99.90
2100;DHT22;1055;48.854;9.302;2023-03-20T22:09:02;12.30;99.90
2100;DHT22;1055;48.854;9.302;2023-03-20T22:11:28;12.20;99.90
2100;DHT22;1055;48.854;9.302;2023-03-20T22:13:54;12.40;99.90
2100;DHT22;1055;48.854;9.302;2023-03-20T22:16:19;12.10;99.90
2100;DHT22;1055;48.854;9.302;2023-03-20T22:18:45;11.20;99.90
2100;DHT22;1055;48.854;9.302;2023-03-20T22:21:11;10.90;99.90
2100;DHT22;1055;48.854;9.302;2023-03-20T22:23:37;10.90;99.90
2100;DHT22;1055;48.854;9.302;2023-03-20T22:26:05;11.30;99.90
2100;DHT22;1055;48.854;9.302;2023-03-20T22:28:32;11.50;99.90
2100;DHT22;1055;48.854;9.302;2023-03-20T22:30:57;11.80;99.90
2100;DHT22;1055;48.854;9.302;2023-03-20T22:33:24;11.90;99.90
2100;DHT22;1055;48.854;9.302;2023-03-20T22:35:51;12.10;99.90
2100;DHT22;1055;48.854;9.302;2023-03-20T22:38:18;12.20;99.90
2100;DHT22;1055;48.854;9.302;2023-03-20T22:40:45;12.20;99.90
2100;DHT22;1055;48.854;9.302;2023-03-20T22:43:11;11.50;99.90
2100;DHT22;1055;48.854;9.302;2023-03-20T22:45:37;11.40;99.90
2100;DHT22;1055;48.854;9.302;2023-03-20T22:48:03;11.50;99.90
2100;DHT22;1055;48.854;9.302;2023-03-20T22:50:29;11.30;99.90
2100;DHT22;1055;48.854;9.302;2023-03-20T22:52:55;11.20;99.90
2100;DHT22;1055;48.854;9.302;2023-03-20T22:55:22;11.20;99.90
2100;DHT22;1055;48.854;9.302;2023-03-20T22:57:48;11.00;99.90
2100;DHT22;1055;48.854;9.302;2023-03-20T23:00:15;11.00;99.90
2100;DHT22;1055;48.854;9.302;2023-03-20T23:02:42;11.20;99.90
2100;DHT22;1055;48.854;9.302;2023-03-20T23:05:08;11.30;99.90
2100;DHT22;1055;48.854;9.302;2023-03-20T23:07:34;11.10;99.90
2100;DHT22;1055;48.854;9.302;2023-03-20T23:10:00;10.80;99.90
2100;DHT22;1055;48.854;9.302;2023-03-20T23:12:26;11.00;99.90
2100;DHT22;1055;48.854;9.302;2023-03-20T23:14:53;10.80;99.90
2100;DHT22;1055;48.854;9.302;2023-03-20T23:17:18;11.00;99.90
2100;DHT22;1055;48.854;9.302;2023-03-20T23:19:44;11.20;99.90
2100;DHT22;1055;48.854;9.302;2023-03-20T23:22:10;11.40;99.90
2100;DHT22;1055;48.854;9.302;2023-03-20T23:24:35;11.50;99.90
2100;DHT22;1055;48.854;9.302;2023-03-20T23:27:01;11.50;99.90
2100;DHT22;1055;48.854;9.302;2023-03-20T23:29:26;11.50;99.90
2100;DHT22;1055;48.854;9.302;2023-03-20T23:31:52;11.30;99.90
2100;DHT22;1055;48.854;9.302;2023-03-20T23:34:17;11.00;99.90
2100;DHT22;1055;48.854;9.302;2023-03-20T23:36:43;10.90;99.90
2100;DHT22;1055;48.854;9.302;2023-03-20T23:39:11;11.20;99.90
2100;DHT22;1055;48.854;9.302;2023-03-20T23:41:37;10.90;99.90
2100;DHT22;1055;48.854;9.302;2023-03-20T23:44:03;10.70;99.90
2100;DHT22;1055;48.854;9.302;2023-03-20T23:46:28;10.90;99.90
2100;DHT22;1055;48.854;9.302;2023-03-20T23:48:54;10.80;99.90
2100;DHT22;1055;48.854;9.302;2023-03-20T23:51:20;10.70;99.90
2100;DHT22;1055;48.854;9.302;2023-03-20T23:53:46;10.80;99.90
2100;DHT22;1055;48.854;9.302;2023-03-20T23:56:12;11.00;99.90
2100;DHT22;1055;48.854;9.302;2023-03-20T23:58:38;11.10;99.90
